»·PEaware :: SWA8691 KSNA-KOAK

SWA8691 :: KSNA-KOAK

FLIGHT INFORMATION

Flight Status: Arrived
Operator:
Southwest Airlines
More flights by this operator :: More flights under this callsign
Pilot: Lauren G. (5641)
Aircraft: BOEING 737-800
(B738)
More flights by this aircraft type
Origin: KSNA John Wayne-Orange Co
United States
Destination: KOAK Metro Oakland Intl
United States
More flights between these airports :: More routes between these airports
Route: HHERO3 OROSZ COREZ RGOOD EMZOH3
File this flight plan on PilotEdge
Remarks:
Altitude:
(Current/Filed)
32,000ft
Speed:
(Current/Filed)
473kts
Departed: 29-Jul-20 11:47 AM
Arrived: 29-Jul-20 12:47 PM
Distance/Time
Traveled:
322nm/1:00
Distance/Time
To Go:
Arrived

Flight Plot

Page will automatically refresh every two minutes.


Map Options




Map Legend


Flown Route
Filed Route
Departure Airport
Arrival Airport
Navaid (VOR, NDB)
Fix

Horizontal Profiles

Position Reports

Time Latitude Longitude Heading Altitude Ground
Speed
29-Jul-20 11:27 33.678316 -117.863059 117 66ft 0kts
29-Jul-20 11:28 33.678316 -117.863059 117 66ft 0kts
29-Jul-20 11:29 33.678316 -117.863059 117 66ft 0kts
29-Jul-20 11:30 33.678316 -117.863059 117 66ft 0kts
29-Jul-20 11:31 33.678316 -117.863059 117 66ft 0kts
29-Jul-20 11:32 33.678316 -117.863059 117 66ft 0kts
29-Jul-20 11:32 33.678316 -117.863059 117 66ft 0kts
29-Jul-20 11:34 33.678316 -117.863059 117 66ft 0kts
29-Jul-20 11:34 33.678316 -117.863059 117 66ft 0kts
29-Jul-20 11:35 33.678316 -117.863059 117 66ft 0kts
29-Jul-20 11:37 33.678316 -117.863059 117 66ft 0kts
29-Jul-20 11:37 33.678316 -117.863059 117 66ft 0kts
29-Jul-20 11:38 33.678316 -117.863059 117 66ft 0kts
29-Jul-20 11:40 33.678316 -117.863059 117 66ft 0kts
29-Jul-20 11:40 33.678317 -117.863059 117 66ft 0kts
29-Jul-20 11:41 33.678457 -117.863524 80 66ft 2kts
29-Jul-20 11:42 33.678228 -117.863861 25 66ft 0kts
29-Jul-20 11:43 33.678228 -117.863861 25 66ft 0kts
29-Jul-20 11:44 33.680693 -117.863093 316 66ft 10kts
29-Jul-20 11:45 33.681230 -117.865230 236 66ft 6kts
29-Jul-20 11:46 33.678953 -117.866724 207 66ft 80kts
29-Jul-20 11:47 33.636060 -117.890135 192 2255ft 214kts
29-Jul-20 11:48 33.568351 -117.907900 207 4917ft 275kts
29-Jul-20 11:49 33.511260 -117.967166 222 5992ft 274kts
29-Jul-20 11:50 33.462741 -118.037894 238 7927ft 278kts
29-Jul-20 11:51 33.423999 -118.118617 244 9794ft 287kts
29-Jul-20 11:52 33.422975 -118.218207 281 11283ft 345kts
29-Jul-20 11:53 33.453576 -118.331771 296 14386ft 370kts
29-Jul-20 11:54 33.506831 -118.440324 317 16000ft 379kts
29-Jul-20 11:55 33.603595 -118.475805 6 16121ft 379kts
29-Jul-20 11:56 33.708338 -118.462599 8 19075ft 384kts
29-Jul-20 11:57 33.817458 -118.459556 0 21472ft 403kts
29-Jul-20 11:58 33.930204 -118.459695 0 22953ft 408kts
29-Jul-20 11:59 34.043393 -118.480783 338 25148ft 421kts
29-Jul-20 12:00 34.154611 -118.531669 337 27148ft 433kts
29-Jul-20 12:01 34.268629 -118.584701 335 28938ft 443kts
29-Jul-20 12:02 34.383292 -118.642650 333 30974ft 442kts
29-Jul-20 12:03 34.487366 -118.719868 323 32009ft 439kts
29-Jul-20 12:04 34.590079 -118.800233 323 32010ft 435kts
29-Jul-20 12:05 34.692573 -118.880060 323 32014ft 437kts
29-Jul-20 12:06 34.795956 -118.960613 323 32037ft 438kts
29-Jul-20 12:07 34.899737 -119.041668 323 32006ft 441kts
29-Jul-20 12:08 35.002635 -119.122246 323 31999ft 441kts
29-Jul-20 12:09 35.105723 -119.203219 323 32000ft 441kts
29-Jul-20 12:10 35.209672 -119.285113 322 32000ft 441kts
29-Jul-20 12:11 35.313683 -119.367308 322 32000ft 441kts
29-Jul-20 12:12 35.417023 -119.449223 322 31987ft 442kts
29-Jul-20 12:13 35.520062 -119.531144 322 31957ft 442kts
29-Jul-20 12:14 35.623109 -119.613337 322 31954ft 443kts
29-Jul-20 12:15 35.726509 -119.696056 321 31953ft 443kts
29-Jul-20 12:16 35.829957 -119.779081 321 31954ft 443kts
29-Jul-20 12:17 35.927639 -119.870375 312 31958ft 436kts
29-Jul-20 12:18 36.016609 -119.972979 311 31963ft 435kts
29-Jul-20 12:19 36.104081 -120.076088 311 31963ft 435kts
29-Jul-20 12:20 36.191584 -120.180025 311 31963ft 436kts
29-Jul-20 12:21 36.279242 -120.284613 311 31594ft 440kts
29-Jul-20 12:22 36.367252 -120.389965 311 30485ft 441kts
29-Jul-20 12:23 36.455085 -120.495445 311 29481ft 437kts
29-Jul-20 12:24 36.541749 -120.599835 312 28479ft 433kts
29-Jul-20 12:25 36.631236 -120.699662 313 27362ft 426kts
29-Jul-20 12:26 36.718933 -120.796848 314 26366ft 423kts
29-Jul-20 12:27 36.805825 -120.893338 314 25321ft 402kts
29-Jul-20 12:28 36.887321 -120.983807 314 23147ft 389kts
29-Jul-20 12:29 36.967106 -121.072495 315 20840ft 380kts
29-Jul-20 12:30 37.044715 -121.158989 315 18581ft 370kts
29-Jul-20 12:31 37.120446 -121.243756 315 16310ft 360kts
29-Jul-20 12:32 37.192854 -121.327533 314 14119ft 349kts
29-Jul-20 12:33 37.263042 -121.409284 315 11976ft 339kts
29-Jul-20 12:34 37.329437 -121.486649 315 10574ft 297kts
29-Jul-20 12:35 37.387318 -121.554233 315 9622ft 278kts
29-Jul-20 12:36 37.443551 -121.621056 306 8184ft 277kts
29-Jul-20 12:37 37.488515 -121.699291 302 6989ft 268kts
29-Jul-20 12:38 37.529625 -121.778117 287 6454ft 266kts
29-Jul-20 12:39 37.542512 -121.867836 275 5441ft 259kts
29-Jul-20 12:40 37.552880 -121.956816 276 4235ft 253kts
29-Jul-20 12:41 37.579502 -122.032693 307 3870ft 238kts
29-Jul-20 12:42 37.619920 -122.092515 308 2520ft 206kts
29-Jul-20 12:43 37.652893 -122.141612 307 1529ft 161kts
29-Jul-20 12:44 37.680137 -122.182344 309 691ft 136kts
29-Jul-20 12:45 37.704009 -122.218109 310 17ft 129kts
29-Jul-20 12:46 37.714443 -122.231334 351 16ft 8kts
29-Jul-20 12:47 37.713309 -122.228256 130 16ft 26kts
29-Jul-20 12:48 37.712706 -122.222268 76 16ft 15kts
29-Jul-20 12:49 37.710908 -122.218060 49 17ft 9kts
29-Jul-20 12:50 37.710938 -122.216697 113 17ft 0kts

Navigation Log

Ident Type
Flight plan parsing failed, navigation log unavailable